createdAt,value
2019-01-11T00:04:38.645Z,98814.05
2019-01-11T00:07:08.167Z,98821.13
2019-01-11T00:09:36.689Z,98829.77
2019-01-11T00:12:06.015Z,98841.92
2019-01-11T00:14:35.349Z,98845.16
2019-01-11T00:17:04.666Z,98848.91
2019-01-11T00:19:34.022Z,98866.67
2019-01-11T00:24:45.258Z,98877.92
2019-01-11T00:27:14.576Z,98879.72
2019-01-11T00:29:43.097Z,98881.56
2019-01-11T00:32:11.570Z,98878.72
2019-01-11T00:34:40.101Z,98895.57
2019-01-11T00:37:09.459Z,98901.69
2019-01-11T00:39:38.786Z,98906.80
2019-01-11T00:42:08.110Z,98895.19
2019-01-11T00:44:37.458Z,98902.84
2019-01-11T00:47:06.790Z,98900.37
2019-01-11T00:49:36.125Z,98916.23
2019-01-11T00:52:04.536Z,98914.33
2019-01-11T00:54:33.073Z,98917.09
2019-01-11T00:57:02.484Z,98920.56
2019-01-11T00:59:31.822Z,98911.86
2019-01-11T01:02:01.256Z,98924.70
2019-01-11T01:04:30.587Z,98919.88
2019-01-11T01:07:00.014Z,98920.64
2019-01-11T01:09:29.351Z,98925.06
2019-01-11T01:11:58.959Z,98920.20
2019-01-11T01:14:28.279Z,98929.14
2019-01-11T01:16:56.708Z,98932.84
2019-01-11T01:19:25.017Z,98934.80
2019-01-11T01:21:54.348Z,98935.34
2019-01-11T01:24:23.753Z,98935.66
2019-01-11T01:26:53.068Z,98935.64
2019-01-11T01:29:22.390Z,98939.47
2019-01-11T01:31:51.719Z,98944.28
2019-01-11T01:34:21.054Z,98945.47
2019-01-11T01:36:50.496Z,98948.61
2019-01-11T01:39:18.933Z,98955.45
2019-01-11T01:41:47.360Z,98951.14
2019-01-11T01:44:15.797Z,98968.00
2019-01-11T01:46:45.158Z,98967.93
2019-01-11T01:49:14.490Z,98962.50
2019-01-11T01:51:43.831Z,98971.58
2019-01-11T01:54:13.254Z,98981.58
2019-01-11T01:56:42.593Z,98968.81
2019-01-11T01:59:11.926Z,98967.56
2019-01-11T02:01:40.459Z,98964.97
2019-01-11T02:04:08.890Z,98976.70
2019-01-11T02:06:38.338Z,98974.61
2019-01-11T02:09:08.038Z,98977.99
2019-01-11T02:11:36.464Z,98976.72
2019-01-11T02:14:05.811Z,98984.48
2019-01-11T02:16:35.245Z,98984.80
2019-01-11T02:19:03.827Z,98978.75
2019-01-11T02:21:32.262Z,98982.20
2019-01-11T02:24:00.697Z,98988.31
2019-01-11T02:26:30.008Z,98999.11
2019-01-11T02:28:59.343Z,98992.63
2019-01-11T02:31:27.774Z,98994.48
2019-01-11T02:33:57.126Z,98997.59
2019-01-11T02:36:26.474Z,99001.59
2019-01-11T02:38:55.788Z,98999.33
2019-01-11T02:41:25.125Z,99005.23
2019-01-11T02:43:53.960Z,99000.84
2019-01-11T02:46:23.330Z,99007.34
2019-01-11T02:48:51.963Z,99003.13
2019-01-11T02:51:20.383Z,99001.84
2019-01-11T02:53:49.713Z,99007.02
2019-01-11T02:56:18.145Z,99012.75
2019-01-11T02:58:47.494Z,99014.66
2019-01-11T03:01:16.821Z,99014.30
2019-01-11T03:03:46.145Z,99024.66
2019-01-11T03:06:14.468Z,99021.92
2019-01-11T03:08:42.897Z,99020.63
2019-01-11T03:11:12.225Z,99025.37
2019-01-11T03:13:41.550Z,99027.36
2019-01-11T03:16:10.983Z,99040.15
2019-01-11T03:18:40.429Z,99042.80
2019-01-11T03:21:08.883Z,99044.20
2019-01-11T03:23:37.426Z,99049.02
2019-01-11T03:26:06.749Z,99047.89
2019-01-11T03:28:35.185Z,99052.11
2019-01-11T03:34:06.016Z,99053.77
2019-01-11T03:36:34.575Z,99058.78
2019-01-11T03:39:06.937Z,99056.89
2019-01-11T03:44:33.380Z,99065.30
2019-01-11T03:47:02.707Z,99076.65
2019-01-11T03:49:32.023Z,99079.54
2019-01-11T03:52:01.345Z,99085.05
2019-01-11T03:54:29.778Z,99096.13
2019-01-11T03:56:58.512Z,99093.35
2019-01-11T03:59:27.843Z,99101.02
2019-01-11T04:01:56.259Z,99107.31
2019-01-11T04:04:25.589Z,99102.31
2019-01-11T04:06:54.916Z,99103.91
2019-01-11T04:09:24.261Z,99103.60
2019-01-11T04:11:52.684Z,99109.59
2019-01-11T04:14:22.012Z,99107.42
2019-01-11T04:16:51.348Z,99116.18
2019-01-11T04:19:19.878Z,99123.95
2019-01-11T04:22:08.667Z,99113.09
2019-01-11T04:27:30.748Z,99119.02
2019-01-11T04:29:59.379Z,99120.52
2019-01-11T04:32:27.818Z,99127.42
2019-01-11T04:34:56.350Z,99129.00
2019-01-11T04:37:25.893Z,99132.02
2019-01-11T04:39:55.244Z,99137.27
2019-01-11T04:42:24.553Z,99141.59
2019-01-11T04:44:54.128Z,99147.27
2019-01-11T04:47:23.652Z,99148.50
2019-01-11T04:49:52.231Z,99146.39
2019-01-11T04:52:21.594Z,99158.45
2019-01-11T04:54:50.906Z,99161.89
2019-01-11T04:57:20.237Z,99173.64
2019-01-11T04:59:49.568Z,99173.35
2019-01-11T05:02:18.880Z,99179.35
2019-01-11T05:04:48.222Z,99182.38
2019-01-11T05:07:17.672Z,99192.05
2019-01-11T05:09:47.010Z,99192.92
2019-01-11T05:12:16.451Z,99199.02
2019-01-11T05:14:45.772Z,99198.64
2019-01-11T05:17:14.279Z,99194.05
2019-01-11T05:19:43.638Z,99199.08
2019-01-11T05:22:12.250Z,99199.99
2019-01-11T05:24:41.586Z,99207.00
2019-01-11T05:27:10.900Z,99199.22
2019-01-11T05:29:40.270Z,99210.41
2019-01-11T05:32:08.696Z,99209.59
2019-01-11T05:34:38.045Z,99219.54
2019-01-11T05:37:06.637Z,99219.73
2019-01-11T05:39:34.970Z,99222.23
2019-01-11T05:42:03.406Z,99230.06
2019-01-11T05:44:32.828Z,99227.27
2019-01-11T05:47:02.143Z,99230.50
2019-01-11T05:49:31.488Z,99225.36
2019-01-11T05:52:00.005Z,99237.80
2019-01-11T05:54:29.338Z,99236.22
2019-01-11T05:56:58.670Z,99246.63
2019-01-11T05:59:27.247Z,99256.56
2019-01-11T06:01:55.660Z,99261.42
2019-01-11T06:04:44.455Z,99253.73
2019-01-11T06:07:32.555Z,99256.77
2019-01-11T06:10:01.367Z,99260.17
2019-01-11T06:12:50.592Z,99261.95
2019-01-11T06:15:20.073Z,99274.61
2019-01-11T06:17:48.513Z,99275.95
2019-01-11T06:23:23.504Z,99277.34
2019-01-11T06:25:53.076Z,99287.17
2019-01-11T06:28:22.425Z,99295.39
2019-01-11T06:30:51.790Z,99294.95
2019-01-11T06:33:21.275Z,99300.66
2019-01-11T06:35:49.943Z,99298.11
2019-01-11T06:38:18.580Z,99292.11
2019-01-11T06:40:46.993Z,99310.20
2019-01-11T06:43:16.439Z,99332.18
2019-01-11T06:45:45.806Z,99337.41
2019-01-11T06:48:34.624Z,99319.48
2019-01-11T06:51:03.110Z,99324.97
2019-01-11T06:53:31.644Z,99324.20
2019-01-11T06:56:01.065Z,99333.18
2019-01-11T06:58:29.567Z,99335.77
2019-01-11T07:00:58.921Z,99332.27
2019-01-11T07:03:28.308Z,99335.34
2019-01-11T07:05:57.663Z,99335.20
2019-01-11T07:08:27.037Z,99336.63
2019-01-11T07:10:56.418Z,99343.92
2019-01-11T07:13:25.753Z,99328.69
2019-01-11T07:15:55.103Z,99325.40
2019-01-11T07:18:24.511Z,99325.80
2019-01-11T07:20:53.040Z,99313.87
2019-01-11T07:23:22.399Z,99304.08
2019-01-11T07:25:50.858Z,99309.25
2019-01-11T07:28:20.398Z,99322.94
2019-01-11T07:33:40.398Z,99351.30
2019-01-11T07:36:29.249Z,99371.91
2019-01-11T07:38:57.838Z,99385.65
2019-01-11T07:41:27.193Z,99391.26
2019-01-11T07:43:56.609Z,99399.03
2019-01-11T07:46:25.764Z,99392.22
2019-01-11T07:48:54.235Z,99400.89
2019-01-11T07:51:22.689Z,99404.99
2019-01-11T07:53:52.022Z,99409.74
2019-01-11T07:56:21.406Z,99396.74
2019-01-11T07:58:50.757Z,99395.78
2019-01-11T08:01:20.097Z,99397.95
2019-01-11T08:03:49.489Z,99397.42
2019-01-11T08:06:19.040Z,99409.66
2019-01-11T08:08:47.564Z,99411.00
2019-01-11T08:11:16.162Z,99410.39
2019-01-11T08:13:44.949Z,99417.36
2019-01-11T08:16:14.299Z,99417.69
2019-01-11T08:18:43.673Z,99424.17
2019-01-11T08:21:13.115Z,99418.98
2019-01-11T08:23:43.154Z,99428.80
2019-01-11T08:26:13.105Z,99428.79
2019-01-11T08:28:42.489Z,99435.66
2019-01-11T08:31:11.936Z,99434.14
2019-01-11T08:33:41.315Z,99430.72
2019-01-11T08:36:10.803Z,99420.16
2019-01-11T08:38:40.193Z,99415.36
2019-01-11T08:41:08.763Z,99416.56
2019-01-11T08:43:37.310Z,99421.27
2019-01-11T08:46:06.838Z,99429.28
2019-01-11T08:48:36.153Z,99441.63
2019-01-11T08:51:17.941Z,99443.78
2019-01-11T08:53:46.369Z,99450.66
2019-01-11T08:56:15.727Z,99451.86
2019-01-11T09:01:40.582Z,99469.27
2019-01-11T09:04:21.613Z,99469.92
2019-01-11T09:06:50.205Z,99477.72
2019-01-11T09:09:18.761Z,99481.41
2019-01-11T09:11:48.090Z,99478.88
2019-01-11T09:14:36.961Z,99486.12
2019-01-11T09:17:05.500Z,99473.48
2019-01-11T09:19:34.865Z,99480.45
2019-01-11T09:22:04.202Z,99471.84
2019-01-11T09:24:32.620Z,99473.57
2019-01-11T09:27:01.145Z,99464.92
2019-01-11T09:32:32.182Z,99458.38
2019-01-11T09:38:03.467Z,99465.34
2019-01-11T09:40:32.333Z,99462.95
2019-01-11T09:43:00.920Z,99454.63
2019-01-11T09:45:30.261Z,99455.83
2019-01-11T09:47:59.596Z,99461.68
2019-01-11T09:50:28.926Z,99457.34
2019-01-11T09:52:59.353Z,99454.38
2019-01-11T09:55:29.062Z,99452.64
2019-01-11T09:57:58.558Z,99449.56
2019-01-11T10:00:28.027Z,99453.61
2019-01-11T10:03:08.392Z,99449.18
2019-01-11T10:05:36.935Z,99445.52
2019-01-11T10:08:05.473Z,99442.05
2019-01-11T10:10:34.829Z,99439.98
2019-01-11T10:13:04.145Z,99442.09
2019-01-11T10:15:33.593Z,99450.42
2019-01-11T10:18:03.164Z,99433.11
2019-01-11T10:20:32.550Z,99434.31
2019-01-11T10:23:01.214Z,99428.62
2019-01-11T10:25:29.860Z,99441.23
2019-01-11T10:34:02.857Z,99436.86
2019-01-11T10:39:34.351Z,99438.63
2019-01-11T10:45:08.825Z,99435.84
2019-01-11T10:47:37.370Z,99434.47
2019-01-11T10:50:07.590Z,99434.41
2019-01-11T10:55:38.111Z,99420.94
2019-01-11T11:01:09.419Z,99419.03
2019-01-11T11:03:38.761Z,99422.06
2019-01-11T11:06:07.343Z,99424.11
2019-01-11T11:08:36.665Z,99426.20
2019-01-11T11:11:06.042Z,99430.89
2019-01-11T11:13:35.453Z,99443.53
2019-01-11T11:16:04.802Z,99441.29
2019-01-11T11:18:34.154Z,99436.72
2019-01-11T11:21:03.485Z,99439.77
2019-01-11T11:26:15.954Z,99438.09
2019-01-11T11:28:45.295Z,99437.29
2019-01-11T11:31:13.843Z,99440.25
2019-01-11T11:36:45.082Z,99439.27
2019-01-11T11:39:14.511Z,99438.95
2019-01-11T11:41:42.977Z,99446.70
2019-01-11T11:44:12.314Z,99444.03
2019-01-11T11:46:41.759Z,99440.02
2019-01-11T11:52:12.666Z,99448.06
2019-01-11T11:54:41.992Z,99445.77
2019-01-11T11:57:10.435Z,99455.61
2019-01-11T11:59:39.782Z,99456.80
2019-01-11T12:02:09.105Z,99462.13
2019-01-11T12:04:38.437Z,99463.62
2019-01-11T12:07:07.785Z,99462.17
2019-01-11T12:09:36.298Z,99458.34
2019-01-11T12:12:05.635Z,99467.03
2019-01-11T12:17:37.283Z,99472.34
2019-01-11T12:20:09.000Z,99476.70
2019-01-11T12:22:37.543Z,99473.34
2019-01-11T12:28:09.494Z,99469.80
2019-01-11T12:30:38.801Z,99465.84
2019-01-11T12:33:08.202Z,99484.60
2019-01-11T12:35:37.622Z,99485.41
2019-01-11T12:38:06.996Z,99490.50
2019-01-11T12:40:36.530Z,99496.13
2019-01-11T12:43:05.062Z,99488.63
2019-01-11T12:45:34.511Z,99489.38
2019-01-11T12:48:03.895Z,99490.05
2019-01-11T12:50:33.197Z,99484.70
2019-01-11T12:53:02.668Z,99489.66
2019-01-11T12:55:32.000Z,99500.44
2019-01-11T12:58:01.399Z,99495.62
2019-01-11T13:00:30.715Z,99502.25
2019-01-11T13:03:00.064Z,99510.05
2019-01-11T13:05:29.401Z,99506.64
2019-01-11T13:07:57.954Z,99509.56
2019-01-11T13:10:27.282Z,99511.97
2019-01-11T13:12:56.638Z,99512.52
2019-01-11T13:15:25.969Z,99514.70
2019-01-11T13:17:55.301Z,99516.50
2019-01-11T13:20:23.961Z,99513.89
2019-01-11T13:22:53.428Z,99514.70
2019-01-11T13:25:21.949Z,99521.05
2019-01-11T13:27:51.289Z,99521.94
2019-01-11T13:30:20.737Z,99515.02
2019-01-11T13:32:49.814Z,99514.26
2019-01-11T13:35:18.564Z,99517.67
2019-01-11T13:37:47.884Z,99522.13
2019-01-11T13:40:21.079Z,99523.56
2019-01-11T13:42:50.611Z,99526.22
2019-01-11T13:45:19.914Z,99525.53
2019-01-11T13:47:49.546Z,99527.84
2019-01-11T13:50:38.961Z,99530.16
2019-01-11T13:53:13.098Z,99532.11
2019-01-11T13:55:42.438Z,99522.83
2019-01-11T13:58:11.781Z,99532.72
2019-01-11T14:00:41.234Z,99539.56
2019-01-11T14:03:10.782Z,99547.34
2019-01-11T14:05:39.570Z,99549.52
2019-01-11T14:08:08.307Z,99557.60
2019-01-11T14:10:37.623Z,99557.83
2019-01-11T14:13:06.991Z,99555.81
2019-01-11T14:15:36.630Z,99556.96
2019-01-11T14:18:06.740Z,99563.91
2019-01-11T14:20:55.478Z,99570.30
2019-01-11T14:23:24.819Z,99561.30
2019-01-11T14:25:53.658Z,99571.78
2019-01-11T14:28:23.100Z,99579.38
2019-01-11T14:30:52.537Z,99576.44
2019-01-11T14:33:21.872Z,99588.69
2019-01-11T14:35:51.407Z,99595.13
2019-01-11T14:38:22.557Z,99593.54
2019-01-11T14:40:51.081Z,99594.59
2019-01-11T14:43:20.422Z,99592.97
2019-01-11T14:45:49.449Z,99592.36
2019-01-11T14:48:18.783Z,99593.23
2019-01-11T14:50:47.391Z,99609.19
2019-01-11T14:53:15.870Z,99608.08
2019-01-11T14:55:45.363Z,99614.80
2019-01-11T14:58:14.689Z,99620.12
2019-01-11T15:00:44.041Z,99620.05
2019-01-11T15:03:13.361Z,99615.36
2019-01-11T15:05:42.732Z,99614.16
2019-01-11T15:08:12.137Z,99622.66
2019-01-11T15:10:41.471Z,99619.56
2019-01-11T15:13:10.837Z,99622.90
2019-01-11T15:15:40.136Z,99630.53
2019-01-11T15:18:09.511Z,99633.38
2019-01-11T15:20:38.150Z,99632.47
2019-01-11T15:23:13.346Z,99633.38
2019-01-11T15:25:56.934Z,99628.41
2019-01-11T15:28:26.281Z,99634.05
2019-01-11T15:30:55.631Z,99636.86
2019-01-11T15:33:24.965Z,99643.30
2019-01-11T15:35:54.339Z,99642.59
2019-01-11T15:38:24.118Z,99640.25
2019-01-11T15:40:52.755Z,99640.96
2019-01-11T15:43:22.081Z,99645.63
2019-01-11T15:46:15.143Z,99656.43
2019-01-11T15:49:01.799Z,99655.77
2019-01-11T15:51:31.428Z,99667.01
2019-01-11T15:54:01.233Z,99669.80
2019-01-11T15:56:29.751Z,99675.92
2019-01-11T15:58:58.498Z,99686.02
2019-01-11T16:01:27.848Z,99683.13
2019-01-11T16:03:57.181Z,99687.45
2019-01-11T16:06:28.401Z,99696.12
2019-01-11T16:09:54.853Z,99697.08
2019-01-11T16:12:45.005Z,99703.70
2019-01-11T16:15:53.050Z,99708.05
2019-01-11T16:18:27.029Z,99710.25
2019-01-11T16:20:56.362Z,99713.77
2019-01-11T16:23:25.832Z,99716.36
2019-01-11T16:25:55.293Z,99717.13
2019-01-11T16:28:24.614Z,99718.05
2019-01-11T16:30:53.142Z,99721.67
2019-01-11T16:33:22.483Z,99732.89
2019-01-11T16:35:51.014Z,99736.41
2019-01-11T16:38:20.334Z,99737.30
2019-01-11T16:40:48.869Z,99736.74
2019-01-11T16:43:18.186Z,99735.58
2019-01-11T16:45:47.505Z,99741.98
2019-01-11T16:48:16.836Z,99742.93
2019-01-11T16:50:46.175Z,99747.91
2019-01-11T16:53:15.548Z,99747.94
2019-01-11T16:55:44.329Z,99747.88
2019-01-11T16:58:12.873Z,99750.28
2019-01-11T17:00:42.196Z,99756.25
2019-01-11T17:03:11.530Z,99748.59
2019-01-11T17:05:41.144Z,99755.88
2019-01-11T17:08:30.167Z,99756.36
2019-01-11T17:11:00.478Z,99760.69
2019-01-11T17:13:48.738Z,99761.47
2019-01-11T17:16:17.282Z,99757.67
2019-01-11T17:18:46.631Z,99761.78
2019-01-11T17:21:16.051Z,99753.41
2019-01-11T17:23:44.586Z,99758.72
2019-01-11T17:26:14.139Z,99763.48
2019-01-11T17:28:43.484Z,99763.91
2019-01-11T17:31:12.814Z,99775.07
2019-01-11T17:33:42.150Z,99769.17
2019-01-11T17:36:11.555Z,99766.41
2019-01-11T17:38:40.915Z,99760.86
2019-01-11T17:41:10.332Z,99764.02
2019-01-11T17:43:38.742Z,99756.48
2019-01-11T17:46:07.678Z,99761.47
2019-01-11T17:48:37.006Z,99759.66
2019-01-11T17:51:06.338Z,99759.27
2019-01-11T17:53:35.654Z,99765.52
2019-01-11T17:56:04.986Z,99767.65
2019-01-11T17:58:34.318Z,99760.69
2019-01-11T18:01:03.025Z,99768.04
2019-01-11T18:03:32.392Z,99768.04
2019-01-11T18:06:01.754Z,99766.82
2019-01-11T18:08:31.101Z,99782.22
2019-01-11T18:10:59.525Z,99789.00
2019-01-11T18:13:28.146Z,99779.95
2019-01-11T18:15:57.485Z,99787.41
2019-01-11T18:18:26.806Z,99787.30
2019-01-11T18:20:55.383Z,99792.13
2019-01-11T18:23:24.699Z,99791.34
2019-01-11T18:25:54.030Z,99794.80
2019-01-11T18:28:22.488Z,99793.47
2019-01-11T18:30:51.815Z,99802.98
2019-01-11T18:33:21.139Z,99802.59
2019-01-11T18:35:50.470Z,99806.18
2019-01-11T18:38:19.127Z,99801.95
2019-01-11T18:40:48.460Z,99802.29
2019-01-11T18:43:16.894Z,99804.55
2019-01-11T18:45:46.331Z,99800.30
2019-01-11T18:48:15.653Z,99808.05
2019-01-11T18:50:44.991Z,99805.95
2019-01-11T18:53:14.323Z,99810.37
2019-01-11T18:55:43.654Z,99810.33
2019-01-11T18:58:12.970Z,99808.84
2019-01-11T19:00:42.476Z,99808.61
2019-01-11T19:03:11.307Z,99800.39
2019-01-11T19:05:40.702Z,99804.41
2019-01-11T19:08:10.066Z,99812.63
2019-01-11T19:10:38.605Z,99810.77
2019-01-11T19:13:07.942Z,99814.78
2019-01-11T19:15:37.271Z,99810.15
2019-01-11T19:18:06.604Z,99811.59
2019-01-11T19:20:35.943Z,99808.80
2019-01-11T19:23:05.292Z,99815.36
2019-01-11T19:25:35.002Z,99814.04
2019-01-11T19:28:04.474Z,99812.80
2019-01-11T19:30:33.800Z,99816.94
2019-01-11T19:33:03.222Z,99812.34
2019-01-11T19:35:32.641Z,99812.74
2019-01-11T19:38:02.043Z,99820.18
2019-01-11T19:40:30.583Z,99816.66
2019-01-11T19:42:59.906Z,99812.77
2019-01-11T19:45:29.243Z,99810.64
2019-01-11T19:47:58.569Z,99814.56
2019-01-11T19:50:27.905Z,99821.47
2019-01-11T19:52:57.216Z,99812.40
2019-01-11T19:55:25.761Z,99817.00
2019-01-11T19:57:54.307Z,99812.73
2019-01-11T20:00:25.111Z,99812.38
2019-01-11T20:02:54.205Z,99814.06
2019-01-11T20:08:29.487Z,99812.91
2019-01-11T20:10:58.920Z,99811.16
2019-01-11T20:13:28.252Z,99804.77
2019-01-11T20:15:56.975Z,99818.13
2019-01-11T20:18:25.687Z,99816.37
2019-01-11T20:20:54.323Z,99821.53
2019-01-11T20:23:23.780Z,99829.33
2019-01-11T20:25:52.406Z,99837.33
2019-01-11T20:28:21.962Z,99836.00
2019-01-11T20:30:51.273Z,99837.38
2019-01-11T20:33:20.815Z,99837.38
2019-01-11T20:35:50.154Z,99830.08
2019-01-11T20:38:18.685Z,99833.66
2019-01-11T20:40:47.224Z,99832.19
2019-01-11T20:43:15.854Z,99828.35
2019-01-11T20:45:44.494Z,99818.83
2019-01-11T20:48:13.805Z,99827.00
2019-01-11T20:50:43.139Z,99820.45
2019-01-11T20:53:12.578Z,99826.95
2019-01-11T20:55:41.915Z,99829.30
2019-01-11T20:58:11.233Z,99832.19
2019-01-11T21:00:40.668Z,99825.88
2019-01-11T21:03:09.390Z,99834.93
2019-01-11T21:08:42.077Z,99842.47
2019-01-11T21:11:11.391Z,99842.86
2019-01-11T21:13:40.025Z,99845.81
2019-01-11T21:16:09.454Z,99842.50
2019-01-11T21:18:37.975Z,99829.93
2019-01-11T21:21:06.624Z,99824.23
2019-01-11T21:23:35.950Z,99817.41
2019-01-11T21:26:05.280Z,99812.59
2019-01-11T21:28:53.970Z,99814.32
2019-01-11T21:31:23.394Z,99816.61
2019-01-11T21:33:52.744Z,99803.51
2019-01-11T21:36:21.293Z,99804.03
2019-01-11T21:38:49.900Z,99800.09
2019-01-11T21:41:19.253Z,99798.86
2019-01-11T21:43:48.575Z,99801.41
2019-01-11T21:46:17.922Z,99796.52
2019-01-11T21:51:49.938Z,99792.27
2019-01-11T21:57:14.670Z,99798.94
2019-01-11T21:59:44.382Z,99798.08
2019-01-11T22:02:12.904Z,99799.33
2019-01-11T22:04:41.653Z,99801.10
2019-01-11T22:07:10.982Z,99809.02
2019-01-11T22:09:40.319Z,99810.50
2019-01-11T22:12:09.662Z,99810.15
2019-01-11T22:14:39.156Z,99814.88
2019-01-11T22:17:08.598Z,99821.70
2019-01-11T22:19:38.043Z,99827.81
2019-01-11T22:22:06.778Z,99831.31
2019-01-11T22:24:35.521Z,99826.63
2019-01-11T22:27:05.045Z,99832.37
2019-01-11T22:29:33.900Z,99822.84
2019-01-11T22:32:03.439Z,99833.55
2019-01-11T22:34:32.853Z,99834.88
2019-01-11T22:37:02.459Z,99827.97
2019-01-11T22:39:31.854Z,99830.56
2019-01-11T22:42:01.263Z,99828.31
2019-01-11T22:44:29.982Z,99831.39
2019-01-11T22:46:59.389Z,99831.39
2019-01-11T22:49:27.856Z,99828.47
2019-01-11T22:51:56.424Z,99826.77
2019-01-11T22:54:24.887Z,99831.89
2019-01-11T22:56:54.275Z,99834.01
2019-01-11T22:59:22.910Z,99835.94
2019-01-11T23:05:09.034Z,99840.21
2019-01-11T23:07:58.257Z,99835.01
2019-01-11T23:11:05.512Z,99835.46
2019-01-11T23:13:34.047Z,99840.63
2019-01-11T23:18:55.619Z,99834.47
2019-01-11T23:31:10.441Z,99816.41
2019-01-11T23:33:38.956Z,99805.56
2019-01-11T23:36:08.524Z,99806.81
2019-01-11T23:38:37.965Z,99790.47
2019-01-11T23:41:07.427Z,99792.98
2019-01-11T23:43:35.927Z,99791.19
2019-01-11T23:46:05.309Z,99800.31
2019-01-11T23:48:34.621Z,99801.94
2019-01-11T23:51:04.108Z,99805.44
2019-01-11T23:53:33.435Z,99799.76
2019-01-11T23:56:02.751Z,99798.01
2019-01-11T23:58:31.285Z,99800.67
